createdAt,value
2022-08-27T00:01:47.074Z,8.88
2022-08-27T00:04:16.596Z,9.10
2022-08-27T00:06:46.353Z,12.10
2022-08-27T00:09:16.139Z,11.55
2022-08-27T00:11:53.132Z,9.40
2022-08-27T00:14:22.537Z,7.72
2022-08-27T00:16:51.941Z,9.00
2022-08-27T00:19:22.343Z,12.32
2022-08-27T00:21:51.976Z,10.10
2022-08-27T00:24:21.242Z,12.43
2022-08-27T00:26:54.347Z,10.98
2022-08-27T00:29:23.657Z,20.58
2022-08-27T00:31:53.997Z,10.75
2022-08-27T00:34:25.022Z,8.63
2022-08-27T00:36:54.437Z,6.85
2022-08-27T00:39:24.079Z,11.85
2022-08-27T00:41:53.319Z,13.00
2022-08-27T00:44:22.643Z,6.70
2022-08-27T00:46:57.521Z,8.30
2022-08-27T00:50:00.971Z,14.80
2022-08-27T00:52:38.098Z,10.60
2022-08-27T00:55:16.068Z,8.23
2022-08-27T00:57:55.233Z,16.67
2022-08-27T01:00:25.137Z,11.38
2022-08-27T01:02:54.875Z,6.28
2022-08-27T01:05:28.311Z,8.35
2022-08-27T01:08:09.258Z,13.32
2022-08-27T01:10:41.024Z,17.27
2022-08-27T01:13:18.685Z,9.15
2022-08-27T01:15:48.782Z,11.52
2022-08-27T01:18:20.306Z,16.25
2022-08-27T01:21:29.974Z,9.05
2022-08-27T01:24:31.578Z,13.43
2022-08-27T01:27:03.861Z,9.80
2022-08-27T01:29:33.800Z,8.32
2022-08-27T01:32:16.237Z,7.97
2022-08-27T01:34:46.427Z,11.70
2022-08-27T01:37:23.693Z,4.78
2022-08-27T01:39:56.428Z,5.45
2022-08-27T01:42:54.254Z,11.57
2022-08-27T01:45:30.790Z,10.77
2022-08-27T01:48:01.387Z,12.25
2022-08-27T01:50:41.649Z,6.55
2022-08-27T01:53:21.654Z,12.70
2022-08-27T01:55:54.225Z,8.88
2022-08-27T01:58:30.423Z,12.05
2022-08-27T02:01:06.858Z,8.00
2022-08-27T02:03:38.052Z,9.60
2022-08-27T02:06:12.374Z,7.68
2022-08-27T02:08:45.244Z,7.07
2022-08-27T02:11:14.585Z,8.63
2022-08-27T02:13:43.908Z,11.27
2022-08-27T02:16:14.446Z,7.22
2022-08-27T02:18:43.728Z,8.02
2022-08-27T02:21:13.948Z,8.02
2022-08-27T02:23:43.676Z,10.32
2022-08-27T02:26:13.668Z,6.80
2022-08-27T02:28:45.171Z,11.00
2022-08-27T02:31:15.217Z,5.82
2022-08-27T02:33:45.177Z,6.20
2022-08-27T02:36:14.783Z,6.00
2022-08-27T02:38:45.284Z,4.53
2022-08-27T02:41:15.408Z,12.00
2022-08-27T02:43:46.424Z,8.95
2022-08-27T02:46:16.147Z,10.38
2022-08-27T02:48:45.714Z,15.20
2022-08-27T02:51:15.052Z,6.50
2022-08-27T02:53:45.055Z,8.13
2022-08-27T02:56:15.185Z,8.80
2022-08-27T02:58:51.104Z,9.48
2022-08-27T03:01:20.454Z,11.13
2022-08-27T03:03:52.598Z,10.85
2022-08-27T03:06:24.259Z,11.18
2022-08-27T03:08:54.450Z,15.50
2022-08-27T03:11:24.617Z,9.60
2022-08-27T03:13:54.447Z,7.63
2022-08-27T03:16:23.952Z,18.42
2022-08-27T03:18:54.130Z,6.22
2022-08-27T03:21:26.857Z,7.75
2022-08-27T03:23:56.468Z,4.53
2022-08-27T03:26:26.726Z,9.98
2022-08-27T03:28:56.966Z,10.57
2022-08-27T03:31:29.151Z,8.82
2022-08-27T03:34:05.463Z,10.15
2022-08-27T03:36:34.986Z,8.65
2022-08-27T03:39:04.513Z,5.65
2022-08-27T03:41:39.939Z,4.13
2022-08-27T03:44:24.616Z,3.78
2022-08-27T03:46:54.470Z,6.25
2022-08-27T03:49:25.421Z,6.90
2022-08-27T03:51:56.467Z,9.05
2022-08-27T03:54:26.259Z,8.88
2022-08-27T03:56:55.473Z,6.43
2022-08-27T03:59:24.763Z,6.75
2022-08-27T04:01:54.200Z,9.43
2022-08-27T04:04:24.859Z,10.38
2022-08-27T04:06:54.180Z,3.55
2022-08-27T04:09:27.406Z,3.38
2022-08-27T04:11:56.760Z,5.32
2022-08-27T04:14:27.351Z,3.45
2022-08-27T04:17:00.355Z,9.60
2022-08-27T04:19:31.334Z,10.23
2022-08-27T04:22:05.480Z,9.20
2022-08-27T04:24:38.578Z,6.05
2022-08-27T04:27:08.529Z,6.28
2022-08-27T04:29:38.302Z,5.47
2022-08-27T04:32:09.657Z,9.27
2022-08-27T04:34:39.146Z,1.77
2022-08-27T04:37:08.814Z,2.47
2022-08-27T04:39:39.523Z,4.63
2022-08-27T04:42:09.243Z,10.85
2022-08-27T04:44:38.828Z,8.27
2022-08-27T04:47:08.434Z,1.77
2022-08-27T04:49:38.753Z,4.45
2022-08-27T04:52:10.661Z,3.47
2022-08-27T04:54:40.775Z,9.02
2022-08-27T04:57:10.332Z,4.65
2022-08-27T04:59:40.108Z,5.50
2022-08-27T05:02:11.933Z,4.18
2022-08-27T05:04:42.928Z,3.28
2022-08-27T05:07:12.793Z,5.78
2022-08-27T05:09:43.048Z,3.42
2022-08-27T05:12:12.471Z,9.05
2022-08-27T05:14:41.843Z,2.53
2022-08-27T05:17:11.183Z,4.53
2022-08-27T05:19:40.503Z,3.70
2022-08-27T05:22:12.680Z,3.83
2022-08-27T05:24:41.949Z,4.93
2022-08-27T05:27:11.632Z,8.20
2022-08-27T05:29:42.304Z,9.82
2022-08-27T05:32:11.864Z,7.25
2022-08-27T05:34:41.267Z,5.03
2022-08-27T05:37:11.240Z,5.07
2022-08-27T05:39:40.587Z,9.57
2022-08-27T05:42:10.033Z,5.50
2022-08-27T05:44:41.668Z,15.00
2022-08-27T05:47:12.009Z,5.63
2022-08-27T05:49:41.258Z,5.50
2022-08-27T05:52:14.030Z,5.25
2022-08-27T05:54:43.210Z,3.97
2022-08-27T05:57:12.769Z,3.85
2022-08-27T05:59:54.406Z,4.57
2022-08-27T06:02:24.077Z,8.23
2022-08-27T06:04:54.545Z,9.77
2022-08-27T06:07:23.909Z,3.35
2022-08-27T06:09:53.357Z,4.65
2022-08-27T06:12:28.287Z,5.35
2022-08-27T06:14:58.621Z,1.83
2022-08-27T06:17:28.135Z,2.85
2022-08-27T06:19:58.122Z,5.05
2022-08-27T06:22:27.551Z,5.45
2022-08-27T06:25:10.671Z,12.88
2022-08-27T06:28:16.370Z,2.25
2022-08-27T06:31:06.389Z,3.65
2022-08-27T06:33:48.254Z,13.45
2022-08-27T06:36:22.215Z,5.07
2022-08-27T06:38:52.765Z,10.38
2022-08-27T06:41:27.730Z,9.07
2022-08-27T06:43:59.431Z,7.38
2022-08-27T06:46:30.387Z,5.00
2022-08-27T06:49:02.657Z,3.65
2022-08-27T06:51:36.069Z,6.28
2022-08-27T06:54:10.483Z,2.75
2022-08-27T06:56:40.867Z,5.63
2022-08-27T06:59:16.108Z,6.75
2022-08-27T07:01:52.259Z,5.03
2022-08-27T07:04:32.540Z,1.25
2022-08-27T07:07:04.801Z,6.50
2022-08-27T07:09:36.304Z,4.00
2022-08-27T07:12:07.011Z,2.72
2022-08-27T07:14:38.313Z,9.77
2022-08-27T07:17:11.291Z,5.28
2022-08-27T07:19:46.381Z,3.10
2022-08-27T07:22:15.977Z,4.60
2022-08-27T07:24:45.318Z,2.72
2022-08-27T07:27:14.654Z,4.20
2022-08-27T07:29:44.053Z,1.88
2022-08-27T07:32:13.451Z,8.73
2022-08-27T07:34:42.664Z,4.47
2022-08-27T07:37:12.090Z,6.75
2022-08-27T07:39:41.359Z,2.88
2022-08-27T07:42:22.950Z,3.65
2022-08-27T07:44:52.321Z,5.35
2022-08-27T07:47:21.676Z,3.30
2022-08-27T07:49:51.300Z,1.77
2022-08-27T07:52:23.603Z,8.57
2022-08-27T07:54:55.814Z,3.95
2022-08-27T07:57:25.102Z,1.10
2022-08-27T07:59:54.537Z,12.80
2022-08-27T08:02:23.965Z,4.50
2022-08-27T08:04:53.376Z,10.45
2022-08-27T08:07:22.970Z,3.33
2022-08-27T08:09:54.865Z,4.20
2022-08-27T08:12:26.495Z,3.78
2022-08-27T08:14:58.990Z,2.35
2022-08-27T08:17:28.826Z,16.85
2022-08-27T08:20:18.391Z,4.90
2022-08-27T08:22:49.952Z,10.43
2022-08-27T08:25:19.703Z,3.63
2022-08-27T08:27:49.433Z,4.53
2022-08-27T08:30:18.856Z,11.00
2022-08-27T08:32:48.471Z,6.95
2022-08-27T08:35:18.907Z,2.47
2022-08-27T08:37:48.629Z,1.52
2022-08-27T08:40:35.703Z,2.38
2022-08-27T08:43:08.117Z,3.33
2022-08-27T08:45:42.504Z,10.77
2022-08-27T08:48:22.054Z,5.25
2022-08-27T08:51:32.452Z,1.75
2022-08-27T08:54:11.812Z,6.68
2022-08-27T08:57:09.332Z,6.57
2022-08-27T08:59:47.708Z,5.72
2022-08-27T09:02:17.728Z,4.25
2022-08-27T09:04:47.177Z,5.18
2022-08-27T09:07:48.674Z,12.27
2022-08-27T09:10:57.636Z,13.05
2022-08-27T09:13:40.259Z,2.38
2022-08-27T09:16:10.770Z,14.38
2022-08-27T09:18:43.118Z,3.50
2022-08-27T09:21:47.522Z,3.70
2022-08-27T09:25:00.786Z,6.80
2022-08-27T09:27:30.824Z,6.82
2022-08-27T09:30:02.337Z,4.28
2022-08-27T09:32:36.152Z,11.35
2022-08-27T09:35:12.250Z,13.95
2022-08-27T09:37:50.072Z,15.27
2022-08-27T09:40:33.226Z,3.75
2022-08-27T09:43:28.035Z,5.15
2022-08-27T09:46:08.585Z,4.10
2022-08-27T09:48:39.757Z,10.00
2022-08-27T09:51:16.127Z,6.72
2022-08-27T09:54:05.269Z,13.95
2022-08-27T09:56:43.176Z,4.05
2022-08-27T10:02:16.193Z,4.15
2022-08-27T10:04:59.851Z,6.53
2022-08-27T10:07:56.579Z,7.25
2022-08-27T10:10:51.236Z,2.38
2022-08-27T10:14:00.151Z,5.75
2022-08-27T10:17:14.310Z,5.22
2022-08-27T10:20:30.585Z,3.15
2022-08-27T10:23:36.824Z,9.27
2022-08-27T10:26:42.451Z,6.05
2022-08-27T10:29:59.941Z,5.28
2022-08-27T10:35:54.577Z,8.85
2022-08-27T10:38:47.287Z,13.20
2022-08-27T10:41:43.575Z,5.95
2022-08-27T10:44:52.886Z,18.42
2022-08-27T10:48:10.521Z,18.08
2022-08-27T10:51:10.542Z,7.22
2022-08-27T10:54:21.966Z,11.88
2022-08-27T10:57:28.526Z,10.93
2022-08-27T11:00:20.920Z,9.30
2022-08-27T11:03:16.110Z,11.13
2022-08-27T11:05:52.308Z,12.30
2022-08-27T11:08:51.042Z,19.67
2022-08-27T11:15:07.157Z,9.18
2022-08-27T11:18:17.565Z,9.45
2022-08-27T11:21:28.640Z,17.02
2022-08-27T11:24:34.390Z,7.65
2022-08-27T11:27:08.596Z,9.45
2022-08-27T11:30:03.701Z,11.50
2022-08-27T11:32:52.243Z,6.88
2022-08-27T11:35:49.752Z,15.77
2022-08-27T11:38:55.492Z,10.38
2022-08-27T11:41:53.332Z,10.10
2022-08-27T11:47:22.491Z,9.70
2022-08-27T11:50:06.278Z,6.05
2022-08-27T11:52:43.719Z,22.75
2022-08-27T11:55:41.355Z,15.30
2022-08-27T11:58:32.991Z,17.58
2022-08-27T12:01:04.938Z,12.63
2022-08-27T12:03:38.010Z,15.30
2022-08-27T12:06:27.522Z,13.60
2022-08-27T12:09:17.364Z,23.52
2022-08-27T12:12:11.299Z,9.48
2022-08-27T12:15:01.785Z,11.63
2022-08-27T12:17:46.398Z,26.85
2022-08-27T12:20:54.184Z,14.70
2022-08-27T12:26:36.639Z,17.25
2022-08-27T12:29:49.875Z,18.35
2022-08-27T12:32:48.006Z,13.07
2022-08-27T12:35:37.939Z,20.48
2022-08-27T12:38:37.766Z,23.67
2022-08-27T12:41:10.046Z,17.10
2022-08-27T12:43:44.491Z,21.35
2022-08-27T12:46:20.247Z,16.48
2022-08-27T12:49:35.856Z,17.88
2022-08-27T12:51:58.943Z,15.95
2022-08-27T12:55:14.483Z,19.25
2022-08-27T12:58:27.916Z,15.80
2022-08-27T13:01:41.295Z,18.05
2022-08-27T13:04:32.162Z,15.00
2022-08-27T13:07:01.712Z,23.45
2022-08-27T13:09:37.365Z,26.77
2022-08-27T13:12:18.795Z,39.80
2022-08-27T13:14:56.868Z,28.02
2022-08-27T13:17:27.026Z,26.58
2022-08-27T13:20:02.544Z,36.95
2022-08-27T13:22:45.566Z,30.42
2022-08-27T13:25:34.356Z,27.05
2022-08-27T13:28:15.896Z,17.58
2022-08-27T13:30:48.910Z,19.10
2022-08-27T13:33:36.260Z,10.88
2022-08-27T13:36:10.660Z,14.47
2022-08-27T13:38:50.155Z,20.92
2022-08-27T13:41:41.265Z,17.48
2022-08-27T13:44:32.606Z,21.85
2022-08-27T13:47:24.502Z,16.67
2022-08-27T13:50:05.627Z,13.02
2022-08-27T13:52:58.843Z,23.70
2022-08-27T13:55:33.321Z,17.63
2022-08-27T13:58:14.951Z,16.13
2022-08-27T14:00:46.956Z,15.27
2022-08-27T14:03:34.145Z,23.63
2022-08-27T14:06:04.447Z,15.18
2022-08-27T14:08:37.701Z,11.60
2022-08-27T14:11:11.877Z,15.30
2022-08-27T14:13:48.197Z,17.02
2022-08-27T14:16:33.149Z,22.55
2022-08-27T14:19:36.315Z,18.20
2022-08-27T14:22:07.232Z,17.38
2022-08-27T14:24:36.518Z,16.40
2022-08-27T14:27:15.190Z,13.15
2022-08-27T14:29:44.893Z,17.98
2022-08-27T14:32:14.206Z,9.90
2022-08-27T14:34:43.687Z,25.98
2022-08-27T14:37:14.000Z,16.15
2022-08-27T14:39:44.946Z,18.23
2022-08-27T14:42:15.738Z,13.68
2022-08-27T14:44:45.811Z,14.90
2022-08-27T14:47:17.499Z,10.48
2022-08-27T14:49:51.965Z,15.45
2022-08-27T14:52:21.236Z,18.23
2022-08-27T14:54:53.536Z,10.45
2022-08-27T14:57:23.768Z,13.63
2022-08-27T14:59:53.060Z,15.80
2022-08-27T15:02:24.265Z,18.05
2022-08-27T15:04:53.751Z,12.73
2022-08-27T15:07:24.146Z,29.45
2022-08-27T15:09:56.362Z,17.83
2022-08-27T15:12:26.548Z,14.90
2022-08-27T15:14:57.127Z,13.35
2022-08-27T15:17:34.752Z,9.85
2022-08-27T15:20:18.953Z,17.35
2022-08-27T15:22:53.246Z,9.80
2022-08-27T15:25:23.594Z,9.73
2022-08-27T15:27:54.228Z,8.23
2022-08-27T15:30:30.335Z,11.00
2022-08-27T15:32:59.829Z,9.32
2022-08-27T15:35:30.152Z,9.15
2022-08-27T15:37:59.708Z,8.07
2022-08-27T15:40:34.131Z,9.60
2022-08-27T15:43:07.792Z,14.95
2022-08-27T15:45:38.099Z,12.20
2022-08-27T15:48:07.762Z,19.00
2022-08-27T15:50:38.492Z,20.42
2022-08-27T15:53:10.365Z,10.88
2022-08-27T15:55:43.302Z,9.57
2022-08-27T15:58:13.890Z,10.45
2022-08-27T16:00:47.462Z,13.18
2022-08-27T16:03:32.859Z,8.45
2022-08-27T16:06:06.555Z,22.88
2022-08-27T16:08:41.840Z,12.27
2022-08-27T16:11:12.010Z,12.60
2022-08-27T16:13:43.179Z,20.00
2022-08-27T16:16:18.600Z,17.08
2022-08-27T16:18:48.005Z,16.25
2022-08-27T16:21:17.315Z,11.32
2022-08-27T16:23:46.843Z,10.65
2022-08-27T16:26:17.886Z,22.77
2022-08-27T16:28:47.119Z,12.77
2022-08-27T16:31:17.618Z,12.05
2022-08-27T16:33:47.341Z,13.73
2022-08-27T16:36:17.277Z,13.07
2022-08-27T16:38:46.598Z,20.45
2022-08-27T16:41:16.287Z,21.23
2022-08-27T16:43:47.525Z,15.00
2022-08-27T16:46:17.380Z,15.88
2022-08-27T16:49:01.325Z,15.60
2022-08-27T16:51:36.992Z,15.27
2022-08-27T16:54:08.570Z,12.85
2022-08-27T16:56:38.507Z,12.57
2022-08-27T16:59:08.951Z,13.48
2022-08-27T17:01:38.918Z,13.23
2022-08-27T17:04:14.534Z,10.52
2022-08-27T17:06:55.876Z,15.73
2022-08-27T17:09:25.603Z,10.77
2022-08-27T17:12:00.201Z,15.05
2022-08-27T17:14:31.823Z,18.63
2022-08-27T17:17:01.394Z,15.80
2022-08-27T17:19:30.628Z,16.52
2022-08-27T17:22:01.155Z,20.27
2022-08-27T17:24:30.512Z,18.98
2022-08-27T17:27:00.292Z,14.80
2022-08-27T17:29:30.603Z,18.83
2022-08-27T17:31:59.861Z,19.02
2022-08-27T17:34:29.826Z,13.88
2022-08-27T17:36:59.182Z,16.27
2022-08-27T17:39:29.417Z,17.98
2022-08-27T17:41:59.399Z,14.98
2022-08-27T17:44:36.321Z,18.27
2022-08-27T17:47:10.134Z,14.15
2022-08-27T17:49:40.234Z,10.18
2022-08-27T17:52:14.017Z,14.43
2022-08-27T17:54:55.426Z,15.05
2022-08-27T17:57:43.171Z,16.48
2022-08-27T18:00:15.940Z,15.65
2022-08-27T18:02:49.884Z,12.70
2022-08-27T18:05:25.883Z,17.02
2022-08-27T18:07:57.966Z,15.70
2022-08-27T18:10:29.423Z,9.13
2022-08-27T18:12:58.703Z,12.82
2022-08-27T18:15:33.685Z,12.60
2022-08-27T18:18:08.072Z,23.38
2022-08-27T18:20:42.665Z,12.02
2022-08-27T18:23:12.611Z,17.17
2022-08-27T18:25:43.292Z,13.18
2022-08-27T18:28:15.214Z,13.63
2022-08-27T18:30:47.815Z,22.70
2022-08-27T18:33:24.267Z,11.98
2022-08-27T18:35:53.506Z,13.80
2022-08-27T18:38:22.797Z,16.33
2022-08-27T18:40:52.497Z,13.75
2022-08-27T18:43:27.752Z,13.10
2022-08-27T18:45:57.719Z,34.25
2022-08-27T18:48:27.041Z,23.98
2022-08-27T18:51:00.624Z,13.45
2022-08-27T18:53:34.471Z,15.07
2022-08-27T18:56:06.050Z,11.45
2022-08-27T18:58:35.980Z,8.75
2022-08-27T19:01:07.928Z,14.45
2022-08-27T19:03:47.951Z,14.43
2022-08-27T19:06:21.411Z,16.48
2022-08-27T19:08:52.365Z,16.17
2022-08-27T19:11:21.762Z,18.80
2022-08-27T19:14:06.673Z,16.65
2022-08-27T19:16:51.606Z,16.27
2022-08-27T19:19:21.072Z,14.23
2022-08-27T19:21:51.723Z,12.57
2022-08-27T19:24:23.151Z,12.35
2022-08-27T19:26:54.252Z,10.57
2022-08-27T19:29:23.667Z,11.07
2022-08-27T19:31:52.903Z,8.95
2022-08-27T19:34:24.158Z,26.17
2022-08-27T19:36:53.544Z,15.13
2022-08-27T19:39:26.499Z,12.95
2022-08-27T19:41:56.577Z,16.60
2022-08-27T19:44:25.951Z,13.70
2022-08-27T19:47:00.614Z,21.65
2022-08-27T19:49:30.187Z,24.38
2022-08-27T19:51:59.503Z,13.43
2022-08-27T19:54:33.631Z,14.73
2022-08-27T19:57:03.417Z,17.20
2022-08-27T19:59:32.667Z,11.13
2022-08-27T20:02:02.649Z,17.52
2022-08-27T20:04:37.275Z,13.95
2022-08-27T20:07:11.468Z,9.60
2022-08-27T20:09:42.764Z,13.52
2022-08-27T20:12:14.899Z,15.27
2022-08-27T20:14:44.878Z,11.18
2022-08-27T20:17:20.158Z,16.48
2022-08-27T20:19:50.299Z,15.15
2022-08-27T20:22:19.510Z,15.10
2022-08-27T20:24:48.850Z,12.60
2022-08-27T20:27:18.174Z,19.45
2022-08-27T20:29:47.435Z,15.15
2022-08-27T20:32:16.903Z,24.05
2022-08-27T20:34:46.715Z,16.38
2022-08-27T20:37:18.123Z,19.52
2022-08-27T20:39:47.551Z,27.20
2022-08-27T20:42:16.954Z,13.95
2022-08-27T20:44:46.390Z,15.27
2022-08-27T20:47:16.929Z,20.98
2022-08-27T20:49:46.395Z,19.70
2022-08-27T20:52:15.922Z,15.23
2022-08-27T20:54:45.623Z,15.80
2022-08-27T20:57:15.853Z,14.27
2022-08-27T20:59:57.403Z,25.13
2022-08-27T21:02:31.077Z,12.80
2022-08-27T21:05:08.101Z,14.95
2022-08-27T21:07:38.085Z,12.10
2022-08-27T21:10:08.927Z,16.45
2022-08-27T21:12:38.677Z,11.65
2022-08-27T21:15:09.733Z,17.63
2022-08-27T21:17:39.328Z,16.48
2022-08-27T21:20:12.259Z,17.40
2022-08-27T21:22:44.536Z,12.18
2022-08-27T21:25:15.562Z,15.40
2022-08-27T21:27:44.853Z,17.25
2022-08-27T21:30:14.745Z,15.48
2022-08-27T21:32:44.034Z,18.25
2022-08-27T21:35:13.346Z,14.65
2022-08-27T21:37:42.961Z,14.30
2022-08-27T21:40:12.859Z,15.80
2022-08-27T21:42:42.311Z,10.50
2022-08-27T21:45:11.801Z,20.75
2022-08-27T21:47:41.531Z,18.88
2022-08-27T21:50:11.597Z,18.35
2022-08-27T21:52:41.502Z,17.55
2022-08-27T21:55:11.506Z,22.73
2022-08-27T21:57:41.042Z,20.02
2022-08-27T22:00:39.993Z,15.18
2022-08-27T22:03:11.947Z,16.08
2022-08-27T22:05:44.287Z,15.38
2022-08-27T22:08:17.307Z,14.48
2022-08-27T22:10:50.729Z,18.45
2022-08-27T22:13:21.074Z,18.67
2022-08-27T22:15:51.281Z,14.80
2022-08-27T22:18:23.092Z,14.43
2022-08-27T22:20:53.761Z,18.05
2022-08-27T22:23:23.577Z,15.27
2022-08-27T22:25:52.976Z,14.35
2022-08-27T22:28:22.506Z,14.93
2022-08-27T22:30:51.940Z,15.93
2022-08-27T22:33:21.240Z,16.70
2022-08-27T22:35:50.595Z,16.77
2022-08-27T22:38:19.954Z,14.43
2022-08-27T22:40:51.376Z,16.42
2022-08-27T22:43:21.251Z,15.43
2022-08-27T22:45:50.451Z,19.50
2022-08-27T22:48:19.982Z,17.13
2022-08-27T22:50:49.301Z,15.70
2022-08-27T22:53:18.532Z,20.45
2022-08-27T22:55:50.231Z,17.13
2022-08-27T22:58:24.289Z,20.60
2022-08-27T23:00:55.808Z,18.60
2022-08-27T23:03:25.296Z,15.00
2022-08-27T23:05:55.849Z,20.02
2022-08-27T23:08:25.177Z,19.35
2022-08-27T23:10:55.820Z,21.80
2022-08-27T23:13:25.428Z,19.17
2022-08-27T23:15:54.805Z,16.90
2022-08-27T23:18:24.215Z,31.73
2022-08-27T23:20:54.006Z,26.55
2022-08-27T23:23:25.795Z,25.42
2022-08-27T23:26:11.869Z,19.48
2022-08-27T23:28:41.513Z,35.58
2022-08-27T23:31:11.290Z,29.95
2022-08-27T23:33:41.509Z,24.40
2022-08-27T23:36:11.255Z,21.42
2022-08-27T23:38:41.038Z,23.08
2022-08-27T23:41:10.291Z,26.27
2022-08-27T23:43:39.738Z,56.28
2022-08-27T23:46:09.319Z,53.22
2022-08-27T23:48:40.330Z,21.38
2022-08-27T23:51:11.086Z,41.13
2022-08-27T23:53:40.854Z,36.10
2022-08-27T23:56:10.969Z,40.05
2022-08-27T23:58:40.372Z,23.33
